createdAt,value
2023-03-09T00:01:38.849Z,19.00
2023-03-09T00:04:09.388Z,21.63
2023-03-09T00:06:39.042Z,18.15
2023-03-09T00:09:08.968Z,19.38
2023-03-09T00:11:37.210Z,19.58
2023-03-09T00:14:06.339Z,15.23
2023-03-09T00:16:34.671Z,17.67
2023-03-09T00:19:03.464Z,17.67
2023-03-09T00:21:39.787Z,19.40
2023-03-09T00:24:11.801Z,23.02
2023-03-09T00:26:41.774Z,17.92
2023-03-09T00:29:11.519Z,20.80
2023-03-09T00:31:40.768Z,21.83
2023-03-09T00:34:09.878Z,21.27
2023-03-09T00:36:38.865Z,16.58
2023-03-09T00:39:07.761Z,17.42
2023-03-09T00:41:37.464Z,18.45
2023-03-09T00:44:07.694Z,23.60
2023-03-09T00:46:36.461Z,22.35
2023-03-09T00:49:07.558Z,25.35
2023-03-09T00:51:37.375Z,24.23
2023-03-09T00:54:06.985Z,19.35
2023-03-09T00:56:36.968Z,23.80
2023-03-09T00:59:05.992Z,20.52
2023-03-09T01:01:34.552Z,20.88
2023-03-09T01:04:04.054Z,21.33
2023-03-09T01:06:33.403Z,20.70
2023-03-09T01:09:02.423Z,20.77
2023-03-09T01:11:32.135Z,20.65
2023-03-09T01:14:02.048Z,22.25
2023-03-09T01:16:30.751Z,17.55
2023-03-09T01:18:59.202Z,18.50
2023-03-09T01:21:27.359Z,20.35
2023-03-09T01:23:57.272Z,25.30
2023-03-09T01:26:25.550Z,23.38
2023-03-09T01:28:53.763Z,21.85
2023-03-09T01:31:23.417Z,19.63
2023-03-09T01:33:52.636Z,21.67
2023-03-09T01:36:21.596Z,23.15
2023-03-09T01:38:50.233Z,20.38
2023-03-09T01:41:20.663Z,24.58
2023-03-09T01:43:50.389Z,19.65
2023-03-09T01:46:49.854Z,24.55
2023-03-09T01:49:33.597Z,22.65
2023-03-09T01:52:11.512Z,24.23
2023-03-09T01:54:46.257Z,23.15
2023-03-09T01:57:20.452Z,24.33
2023-03-09T01:59:50.962Z,24.20
2023-03-09T02:02:24.007Z,24.10
2023-03-09T02:04:58.901Z,20.25
2023-03-09T02:07:28.349Z,24.58
2023-03-09T02:10:02.819Z,23.48
2023-03-09T02:12:33.198Z,25.15
2023-03-09T02:15:05.536Z,23.23
2023-03-09T02:17:36.402Z,23.80
2023-03-09T02:20:14.359Z,27.50
2023-03-09T02:22:45.026Z,28.70
2023-03-09T02:25:23.719Z,24.10
2023-03-09T02:27:55.046Z,28.10
2023-03-09T02:30:26.366Z,25.80
2023-03-09T02:33:05.596Z,27.50
2023-03-09T02:35:35.318Z,26.17
2023-03-09T02:38:04.422Z,28.70
2023-03-09T02:40:39.344Z,29.98
2023-03-09T02:43:14.728Z,24.63
2023-03-09T02:45:45.254Z,27.20
2023-03-09T02:48:14.301Z,30.58
2023-03-09T02:50:44.203Z,29.23
2023-03-09T02:53:13.263Z,32.13
2023-03-09T02:55:41.856Z,29.50
2023-03-09T02:58:13.824Z,30.13
2023-03-09T03:00:42.097Z,31.15
2023-03-09T03:03:10.740Z,32.42
2023-03-09T03:05:39.221Z,30.17
2023-03-09T03:08:08.551Z,32.45
2023-03-09T03:10:36.773Z,28.27
2023-03-09T03:13:06.557Z,33.78
2023-03-09T03:15:36.626Z,32.83
2023-03-09T03:18:06.692Z,30.75
2023-03-09T03:20:36.508Z,31.98
2023-03-09T03:23:06.525Z,28.30
2023-03-09T03:25:43.224Z,32.20
2023-03-09T03:28:12.809Z,35.38
2023-03-09T03:30:43.086Z,35.50
2023-03-09T03:33:12.806Z,28.83
2023-03-09T03:35:42.767Z,32.78
2023-03-09T03:38:12.529Z,32.85
2023-03-09T03:40:41.461Z,33.80
2023-03-09T03:43:12.143Z,32.50
2023-03-09T03:45:44.868Z,32.78
2023-03-09T03:48:13.389Z,31.90
2023-03-09T03:50:42.016Z,34.92
2023-03-09T03:53:10.407Z,32.22
2023-03-09T03:55:39.237Z,34.47
2023-03-09T03:58:08.018Z,37.30
2023-03-09T04:00:38.061Z,35.25
2023-03-09T04:03:12.623Z,30.10
2023-03-09T04:05:47.417Z,34.15
2023-03-09T04:08:17.256Z,41.78
2023-03-09T04:10:47.639Z,35.75
2023-03-09T04:13:17.801Z,38.22
2023-03-09T04:15:46.986Z,35.60
2023-03-09T04:18:16.910Z,31.48
2023-03-09T04:20:46.632Z,30.75
2023-03-09T04:23:16.299Z,34.33
2023-03-09T04:25:57.685Z,34.08
2023-03-09T04:28:31.821Z,32.92
2023-03-09T04:31:01.306Z,32.72
2023-03-09T04:33:34.715Z,36.30
2023-03-09T04:36:05.768Z,41.75
2023-03-09T04:38:37.577Z,37.70
2023-03-09T04:41:07.985Z,33.03
2023-03-09T04:43:36.883Z,32.47
2023-03-09T04:46:07.364Z,29.08
2023-03-09T04:48:38.583Z,35.03
2023-03-09T04:51:09.738Z,31.55
2023-03-09T04:53:38.301Z,35.97
2023-03-09T04:56:08.342Z,33.10
2023-03-09T04:58:44.059Z,34.35
2023-03-09T05:01:13.123Z,35.20
2023-03-09T05:03:43.390Z,30.77
2023-03-09T05:06:13.342Z,36.58
2023-03-09T05:08:42.829Z,36.97
2023-03-09T05:11:11.150Z,31.95
2023-03-09T05:13:41.591Z,32.63
2023-03-09T05:16:14.646Z,32.58
2023-03-09T05:18:50.405Z,32.03
2023-03-09T05:21:21.051Z,32.05
2023-03-09T05:23:50.583Z,28.67
2023-03-09T05:26:19.309Z,29.83
2023-03-09T05:28:52.296Z,30.42
2023-03-09T05:31:21.813Z,30.02
2023-03-09T05:33:54.059Z,30.40
2023-03-09T05:36:24.421Z,38.35
2023-03-09T05:38:55.176Z,27.00
2023-03-09T05:41:24.338Z,33.95
2023-03-09T05:44:00.334Z,35.50
2023-03-09T05:46:30.570Z,25.52
2023-03-09T05:49:00.349Z,33.22
2023-03-09T05:51:29.585Z,27.17
2023-03-09T05:53:58.212Z,29.88
2023-03-09T05:56:27.753Z,28.85
2023-03-09T05:59:00.562Z,28.38
2023-03-09T06:01:30.415Z,29.08
2023-03-09T06:04:20.396Z,28.77
2023-03-09T06:06:53.644Z,28.45
2023-03-09T06:09:26.841Z,28.67
2023-03-09T06:11:56.020Z,29.42
2023-03-09T06:14:25.324Z,29.27
2023-03-09T06:16:54.904Z,30.17
2023-03-09T06:19:24.523Z,26.00
2023-03-09T06:21:55.790Z,28.38
2023-03-09T06:24:24.591Z,30.27
2023-03-09T06:26:53.986Z,30.15
2023-03-09T06:29:32.107Z,28.38
2023-03-09T06:32:01.468Z,27.48
2023-03-09T06:34:34.863Z,24.50
2023-03-09T06:37:07.368Z,28.40
2023-03-09T06:39:36.140Z,29.05
2023-03-09T06:42:07.006Z,26.20
2023-03-09T06:44:43.886Z,31.90
2023-03-09T06:47:14.164Z,27.13
2023-03-09T06:49:47.017Z,26.17
2023-03-09T06:52:21.599Z,28.98
2023-03-09T06:54:50.460Z,24.90
2023-03-09T06:57:22.125Z,30.23
2023-03-09T06:59:50.812Z,23.85
2023-03-09T07:02:19.369Z,23.90
2023-03-09T07:04:49.510Z,29.33
2023-03-09T07:07:19.691Z,30.45
2023-03-09T07:09:47.927Z,26.60
2023-03-09T07:12:16.756Z,30.60
2023-03-09T07:14:45.778Z,29.60
2023-03-09T07:19:43.301Z,32.20
2023-03-09T07:22:14.113Z,34.33
2023-03-09T07:24:43.301Z,29.98
2023-03-09T07:27:14.370Z,25.65
2023-03-09T07:29:42.829Z,28.55
2023-03-09T07:32:12.298Z,24.85
2023-03-09T07:34:40.810Z,28.50
2023-03-09T07:37:09.494Z,29.40
2023-03-09T07:39:39.353Z,25.95
2023-03-09T07:42:08.691Z,26.48
2023-03-09T07:45:13.545Z,28.13
2023-03-09T07:47:42.881Z,27.17
2023-03-09T07:50:13.105Z,29.45
2023-03-09T07:52:41.706Z,25.77
2023-03-09T07:55:14.180Z,27.17
2023-03-09T07:57:44.388Z,102.07
2023-03-09T08:00:21.700Z,127.55
2023-03-09T08:02:50.100Z,37.58
2023-03-09T08:05:19.650Z,47.53
2023-03-09T08:07:49.622Z,25.77
2023-03-09T08:10:22.445Z,23.38
2023-03-09T08:12:52.455Z,19.23
2023-03-09T08:15:21.719Z,20.88
2023-03-09T08:17:51.142Z,24.65
2023-03-09T08:20:20.361Z,18.33
2023-03-09T08:22:49.300Z,23.10
2023-03-09T08:27:49.814Z,17.70
2023-03-09T08:30:22.053Z,19.58
2023-03-09T08:32:51.686Z,17.63
2023-03-09T08:35:21.666Z,17.70
2023-03-09T08:37:50.836Z,17.52
2023-03-09T08:40:21.745Z,17.55
2023-03-09T08:47:49.284Z,14.98
2023-03-09T08:50:22.953Z,14.85
2023-03-09T08:52:52.303Z,14.63
2023-03-09T08:55:22.946Z,12.70
2023-03-09T08:57:52.766Z,16.98
2023-03-09T09:00:23.001Z,13.43
2023-03-09T09:02:52.502Z,16.48
2023-03-09T09:05:22.344Z,14.40
2023-03-09T09:07:51.600Z,13.65
2023-03-09T09:10:34.845Z,13.25
2023-03-09T09:13:05.546Z,14.60
2023-03-09T09:15:34.896Z,15.55
2023-03-09T09:18:03.941Z,14.55
2023-03-09T09:20:32.374Z,13.05
2023-03-09T09:23:00.920Z,12.48
2023-03-09T09:25:30.838Z,15.60
2023-03-09T09:27:59.106Z,14.13
2023-03-09T09:30:28.058Z,12.75
2023-03-09T09:32:56.840Z,13.00
2023-03-09T09:35:26.029Z,12.02
2023-03-09T09:37:55.939Z,13.38
2023-03-09T09:40:26.050Z,10.57
2023-03-09T09:42:57.971Z,14.90
2023-03-09T09:45:32.251Z,15.85
2023-03-09T09:48:03.602Z,17.50
2023-03-09T09:50:45.240Z,17.05
2023-03-09T09:53:24.195Z,13.63
2023-03-09T09:55:54.799Z,14.02
2023-03-09T09:58:35.018Z,12.23
2023-03-09T10:01:12.529Z,11.02
2023-03-09T10:03:47.811Z,13.38
2023-03-09T10:06:19.880Z,16.85
2023-03-09T10:08:51.170Z,13.52
2023-03-09T10:11:25.959Z,12.32
2023-03-09T10:14:01.739Z,11.00
2023-03-09T10:16:36.757Z,12.27
2023-03-09T10:19:16.234Z,11.50
2023-03-09T10:21:51.111Z,12.68
2023-03-09T10:24:25.011Z,10.40
2023-03-09T10:26:59.479Z,9.75
2023-03-09T10:29:42.489Z,9.40
2023-03-09T10:32:18.114Z,12.15
2023-03-09T10:34:55.840Z,8.65
2023-03-09T10:37:27.103Z,9.80
2023-03-09T10:39:56.904Z,11.45
2023-03-09T10:42:28.400Z,14.73
2023-03-09T10:45:10.494Z,9.30
2023-03-09T10:48:00.960Z,9.07
2023-03-09T10:50:33.146Z,11.35
2023-03-09T10:53:29.775Z,8.93
2023-03-09T10:56:07.135Z,10.63
2023-03-09T10:58:36.655Z,10.30
2023-03-09T11:01:21.004Z,8.90
2023-03-09T11:03:49.393Z,11.45
2023-03-09T11:06:33.937Z,10.82
2023-03-09T11:09:15.846Z,10.30
2023-03-09T11:11:48.393Z,8.40
2023-03-09T11:14:28.463Z,9.85
2023-03-09T11:17:02.116Z,10.13
2023-03-09T11:22:12.379Z,7.30
2023-03-09T11:24:46.242Z,12.70
2023-03-09T11:27:21.156Z,8.13
2023-03-09T11:29:56.787Z,9.25
2023-03-09T11:32:26.546Z,10.35
2023-03-09T11:34:55.827Z,8.90
2023-03-09T11:37:31.056Z,7.15
2023-03-09T11:40:08.839Z,7.63
2023-03-09T11:42:42.944Z,11.73
2023-03-09T11:45:20.786Z,9.35
2023-03-09T11:47:57.226Z,13.68
2023-03-09T11:50:33.096Z,9.48
2023-03-09T11:53:08.046Z,9.23
2023-03-09T11:55:40.494Z,10.25
2023-03-09T11:58:15.412Z,8.50
2023-03-09T12:00:48.113Z,8.82
2023-03-09T12:03:21.251Z,8.07
2023-03-09T12:05:54.998Z,12.27
2023-03-09T12:08:31.705Z,9.48
2023-03-09T12:11:08.673Z,9.90
2023-03-09T12:13:41.152Z,11.60
2023-03-09T12:16:20.431Z,9.38
2023-03-09T12:19:01.220Z,9.68
2023-03-09T12:21:33.792Z,9.48
2023-03-09T12:24:20.506Z,8.45
2023-03-09T12:27:00.179Z,7.20
2023-03-09T12:29:35.582Z,5.70
2023-03-09T12:32:42.222Z,9.73
2023-03-09T12:35:44.893Z,7.00
2023-03-09T12:38:23.900Z,6.75
2023-03-09T12:40:52.985Z,12.05
2023-03-09T12:43:53.794Z,12.18
2023-03-09T12:47:00.964Z,8.43
2023-03-09T12:49:35.245Z,9.52
2023-03-09T12:52:46.957Z,9.75
2023-03-09T12:55:20.852Z,11.68
2023-03-09T12:57:51.954Z,10.68
2023-03-09T13:00:31.059Z,9.93
2023-03-09T13:03:05.852Z,10.27
2023-03-09T13:05:44.312Z,8.38
2023-03-09T13:08:29.617Z,20.25
2023-03-09T13:11:33.207Z,10.93
2023-03-09T13:14:03.930Z,10.17
2023-03-09T13:16:52.898Z,9.13
2023-03-09T13:19:56.766Z,9.75
2023-03-09T13:22:43.800Z,9.32
2023-03-09T13:25:34.873Z,10.07
2023-03-09T13:28:23.378Z,8.13
2023-03-09T13:31:00.200Z,10.02
2023-03-09T13:33:32.011Z,12.57
2023-03-09T13:36:24.698Z,13.10
2023-03-09T13:38:59.044Z,10.23
2023-03-09T13:41:30.056Z,8.57
2023-03-09T13:44:00.372Z,13.10
2023-03-09T13:46:32.800Z,12.98
2023-03-09T13:49:09.018Z,12.55
2023-03-09T13:51:50.533Z,15.52
2023-03-09T13:54:31.589Z,9.25
2023-03-09T13:57:05.375Z,11.43
2023-03-09T13:59:55.499Z,11.23
2023-03-09T14:02:25.727Z,11.52
2023-03-09T14:05:42.426Z,12.20
2023-03-09T14:07:58.215Z,10.02
2023-03-09T14:10:30.768Z,11.38
2023-03-09T14:13:03.217Z,13.07
2023-03-09T14:15:37.864Z,12.35
2023-03-09T14:18:07.046Z,13.63
2023-03-09T14:20:41.104Z,15.60
2023-03-09T14:23:20.957Z,10.57
2023-03-09T14:25:50.969Z,13.80
2023-03-09T14:28:27.095Z,12.95
2023-03-09T14:31:15.771Z,12.68
2023-03-09T14:33:59.686Z,15.02
2023-03-09T14:36:31.054Z,13.27
2023-03-09T14:39:02.312Z,11.48
2023-03-09T14:41:32.500Z,11.93
2023-03-09T14:44:01.002Z,14.32
2023-03-09T14:46:32.037Z,14.25
2023-03-09T14:49:04.676Z,13.73
2023-03-09T14:51:35.838Z,13.52
2023-03-09T14:54:12.463Z,17.63
2023-03-09T14:56:40.953Z,14.20
2023-03-09T14:59:13.332Z,14.38
2023-03-09T15:01:58.766Z,14.25
2023-03-09T15:04:29.922Z,15.55
2023-03-09T15:06:59.086Z,19.42
2023-03-09T15:09:27.323Z,16.88
2023-03-09T15:11:58.937Z,15.18
2023-03-09T15:14:31.380Z,18.65
2023-03-09T15:17:04.071Z,21.90
2023-03-09T15:19:32.860Z,16.70
2023-03-09T15:22:03.698Z,17.65
2023-03-09T15:24:33.684Z,18.27
2023-03-09T15:27:04.046Z,21.17
2023-03-09T15:29:33.417Z,18.98
2023-03-09T15:32:08.405Z,18.00
2023-03-09T15:34:39.035Z,17.38
2023-03-09T15:37:08.299Z,21.08
2023-03-09T15:39:37.645Z,17.95
2023-03-09T15:42:06.603Z,18.05
2023-03-09T15:44:36.761Z,19.08
2023-03-09T15:47:07.057Z,21.00
2023-03-09T15:49:35.923Z,16.30
2023-03-09T15:52:04.392Z,20.75
2023-03-09T15:54:33.559Z,20.00
2023-03-09T15:57:02.032Z,19.20
2023-03-09T15:59:30.455Z,21.35
2023-03-09T16:02:00.123Z,23.27
2023-03-09T16:04:31.860Z,24.40
2023-03-09T16:07:02.700Z,24.10
2023-03-09T16:09:32.507Z,26.00
2023-03-09T16:12:01.839Z,25.88
2023-03-09T16:14:32.437Z,24.20
2023-03-09T16:17:02.085Z,26.48
2023-03-09T16:19:32.805Z,32.17
2023-03-09T16:22:01.332Z,29.38
2023-03-09T16:24:30.350Z,41.45
2023-03-09T16:26:59.491Z,34.47
2023-03-09T16:29:28.379Z,33.33
2023-03-09T16:32:00.975Z,33.28
2023-03-09T16:34:35.825Z,36.70
2023-03-09T16:37:06.606Z,34.25
2023-03-09T16:39:35.357Z,31.27
2023-03-09T16:42:04.828Z,30.20
2023-03-09T16:44:34.299Z,26.92
2023-03-09T16:47:14.018Z,28.35
2023-03-09T16:49:45.360Z,27.23
2023-03-09T16:52:14.174Z,32.30
2023-03-09T16:54:43.207Z,36.28
2023-03-09T16:57:12.552Z,31.60
2023-03-09T16:59:40.902Z,27.83
2023-03-09T17:02:12.597Z,28.75
2023-03-09T17:04:40.971Z,29.95
2023-03-09T17:07:12.396Z,35.90
2023-03-09T17:09:41.187Z,29.27
2023-03-09T17:12:11.697Z,27.02
2023-03-09T17:14:40.188Z,23.10
2023-03-09T17:17:10.248Z,25.63
2023-03-09T17:19:39.193Z,28.10
2023-03-09T17:22:08.127Z,26.27
2023-03-09T17:24:39.453Z,26.48
2023-03-09T17:27:08.015Z,30.70
2023-03-09T17:29:36.601Z,27.50
2023-03-09T17:32:08.630Z,30.60
2023-03-09T17:34:37.857Z,26.88
2023-03-09T17:37:06.605Z,29.33
2023-03-09T17:39:35.327Z,28.52
2023-03-09T17:42:06.614Z,29.63
2023-03-09T17:44:39.413Z,27.45
2023-03-09T17:47:09.883Z,29.67
2023-03-09T17:49:38.621Z,33.33
2023-03-09T17:52:08.310Z,31.58
2023-03-09T17:54:36.653Z,27.23
2023-03-09T17:57:09.241Z,30.45
2023-03-09T17:59:37.869Z,30.80
2023-03-09T18:02:08.262Z,27.42
2023-03-09T18:04:37.598Z,26.83
2023-03-09T18:07:18.042Z,30.02
2023-03-09T18:09:47.033Z,30.50
2023-03-09T18:12:16.847Z,36.42
2023-03-09T18:14:46.194Z,37.97
2023-03-09T18:17:15.214Z,38.03
2023-03-09T18:19:43.340Z,32.35
2023-03-09T18:22:14.864Z,37.13
2023-03-09T18:24:44.151Z,35.03
2023-03-09T18:27:13.842Z,35.15
2023-03-09T18:29:44.915Z,35.53
2023-03-09T18:32:13.258Z,30.63
2023-03-09T18:34:44.748Z,34.63
2023-03-09T18:37:12.956Z,33.72
2023-03-09T18:39:41.205Z,33.08
2023-03-09T18:42:11.048Z,41.70
2023-03-09T18:44:39.237Z,43.63
2023-03-09T18:47:10.210Z,34.50
2023-03-09T18:49:38.305Z,34.10
2023-03-09T18:52:07.922Z,35.70
2023-03-09T18:54:36.531Z,37.80
2023-03-09T18:57:05.928Z,31.90
2023-03-09T18:59:34.442Z,37.55
2023-03-09T19:02:04.633Z,26.45
2023-03-09T19:04:34.529Z,29.15
2023-03-09T19:07:02.866Z,30.58
2023-03-09T19:09:31.893Z,31.25
2023-03-09T19:12:00.705Z,31.60
2023-03-09T19:14:29.726Z,30.23
2023-03-09T19:16:58.043Z,33.25
2023-03-09T19:19:26.392Z,29.17
2023-03-09T19:21:56.281Z,24.85
2023-03-09T19:24:24.561Z,33.30
2023-03-09T19:26:53.377Z,34.40
2023-03-09T19:29:21.843Z,36.90
2023-03-09T19:31:50.160Z,31.48
2023-03-09T19:34:18.418Z,31.33
2023-03-09T19:36:46.957Z,36.00
2023-03-09T19:39:16.771Z,32.88
2023-03-09T19:41:44.760Z,34.53
2023-03-09T19:44:13.024Z,32.88
2023-03-09T19:46:43.777Z,38.85
2023-03-09T19:49:12.874Z,35.72
2023-03-09T19:51:41.599Z,37.13
2023-03-09T19:54:13.407Z,42.75
2023-03-09T19:56:44.174Z,36.03
2023-03-09T19:59:16.014Z,36.42
2023-03-09T20:01:46.935Z,39.55
2023-03-09T20:04:18.776Z,43.53
2023-03-09T20:06:50.339Z,41.58
2023-03-09T20:09:19.316Z,41.45
2023-03-09T20:11:49.358Z,41.97
2023-03-09T20:14:17.811Z,41.88
2023-03-09T20:16:46.579Z,40.35
2023-03-09T20:19:16.650Z,42.60
2023-03-09T20:21:45.459Z,39.17
2023-03-09T20:24:16.737Z,50.28
2023-03-09T20:26:47.095Z,43.72
2023-03-09T20:29:18.309Z,42.80
2023-03-09T20:31:49.627Z,44.38
2023-03-09T20:34:18.921Z,42.88
2023-03-09T20:36:47.115Z,46.50
2023-03-09T20:39:15.744Z,48.25
2023-03-09T20:41:44.462Z,55.90
2023-03-09T20:44:13.327Z,45.97
2023-03-09T20:46:43.044Z,49.80
2023-03-09T20:49:12.367Z,46.42
2023-03-09T20:51:40.700Z,48.38
2023-03-09T20:54:09.870Z,62.88
2023-03-09T20:56:38.307Z,41.35
2023-03-09T20:59:07.375Z,43.80
2023-03-09T21:01:35.825Z,50.65
2023-03-09T21:04:06.639Z,49.95
2023-03-09T21:06:35.069Z,55.38
2023-03-09T21:09:03.764Z,78.80
2023-03-09T21:11:32.847Z,48.50
2023-03-09T21:14:03.927Z,45.58
2023-03-09T21:16:33.201Z,46.90
2023-03-09T21:19:04.817Z,45.67
2023-03-09T21:21:36.310Z,45.13
2023-03-09T21:24:05.444Z,41.30
2023-03-09T21:26:34.514Z,41.45
2023-03-09T21:29:04.650Z,46.08
2023-03-09T21:31:33.531Z,42.72
2023-03-09T21:34:02.368Z,42.42
2023-03-09T21:36:30.666Z,44.80
2023-03-09T21:39:00.813Z,39.92
2023-03-09T21:41:29.557Z,48.95
2023-03-09T21:43:58.392Z,46.33
2023-03-09T21:46:28.116Z,51.42
2023-03-09T21:48:57.222Z,45.58
2023-03-09T21:51:26.390Z,41.53
2023-03-09T21:53:57.320Z,41.47
2023-03-09T21:56:27.501Z,38.20
2023-03-09T21:58:57.958Z,42.00
2023-03-09T22:01:28.136Z,41.17
2023-03-09T22:03:57.014Z,38.30
2023-03-09T22:06:27.700Z,37.15
2023-03-09T22:08:56.753Z,39.22
2023-03-09T22:11:29.530Z,33.72
2023-03-09T22:13:57.882Z,47.90
2023-03-09T22:16:29.044Z,36.40
2023-03-09T22:18:59.790Z,38.83
2023-03-09T22:21:28.699Z,35.75
2023-03-09T22:23:57.520Z,39.40
2023-03-09T22:26:27.457Z,37.95
2023-03-09T22:28:56.876Z,37.70
2023-03-09T22:31:25.863Z,33.05
2023-03-09T22:33:58.635Z,37.55
2023-03-09T22:36:27.285Z,37.35
2023-03-09T22:38:55.816Z,37.35
2023-03-09T22:41:26.526Z,32.83
2023-03-09T22:43:56.844Z,37.50
2023-03-09T22:46:27.474Z,34.97
2023-03-09T22:48:56.422Z,33.42
2023-03-09T22:51:26.504Z,37.90
2023-03-09T22:53:56.853Z,31.88
2023-03-09T22:56:26.511Z,33.75
2023-03-09T22:58:56.903Z,33.15
2023-03-09T23:01:26.862Z,32.92
2023-03-09T23:03:57.721Z,32.10
2023-03-09T23:06:28.469Z,30.55
2023-03-09T23:08:58.289Z,33.53
2023-03-09T23:11:28.393Z,30.95
2023-03-09T23:13:58.246Z,32.83
2023-03-09T23:16:26.701Z,29.48
2023-03-09T23:18:55.697Z,30.88
2023-03-09T23:21:24.740Z,34.53
2023-03-09T23:23:53.610Z,30.20
2023-03-09T23:26:22.884Z,29.48
2023-03-09T23:28:51.892Z,28.50
2023-03-09T23:31:22.264Z,27.65
2023-03-09T23:33:51.011Z,28.70
2023-03-09T23:36:23.110Z,26.42
2023-03-09T23:38:53.775Z,24.60
2023-03-09T23:41:22.072Z,30.20
2023-03-09T23:43:50.289Z,27.25
2023-03-09T23:46:19.838Z,26.40
2023-03-09T23:48:51.891Z,28.63
2023-03-09T23:51:22.228Z,32.85
2023-03-09T23:53:50.646Z,32.08
2023-03-09T23:56:19.833Z,40.47
2023-03-09T23:58:49.818Z,37.90
